Time;durP1;ratioP1;P1;durP2;ratioP2;P2;SDS_P1;SDS_P2;PMS_P1;PMS_P2;Temp;Humidity;BMP_temperature;BMP_pressure;BME280_temperature;BME280_humidity;BME280_pressure;Samples;Min_cycle;Max_cycle;Signal;HPM_P1;HPM_P2
2021/06/05 00:01:09;;;;;;;24.80;22.07;;;;;;;;;;5114062;28;20444;-73
2021/06/05 00:03:36;;;;;;;25.87;22.90;;;;;;;;;;5113651;28;20446;-72
2021/06/05 00:06:03;;;;;;;26.17;23.50;;;;;;;;;;5114513;28;20837;-72
2021/06/05 00:08:31;;;;;;;23.57;21.27;;;;;;;;;;5114224;28;20915;-72
2021/06/05 00:11:00;;;;;;;25.63;23.00;;;;;;;;;;5113640;28;20441;-72
2021/06/05 00:13:29;;;;;;;26.23;23.70;;;;;;;;;;5114278;28;20485;-73
2021/06/05 00:15:57;;;;;;;24.00;21.80;;;;;;;;;;5113554;28;20441;-72
2021/06/05 00:18:24;;;;;;;22.93;20.00;;;;;;;;;;5114625;28;20448;-72
2021/06/05 00:20:51;;;;;;;25.80;23.07;;;;;;;;;;5117668;28;20431;-73
2021/06/05 00:23:18;;;;;;;24.13;21.60;;;;;;;;;;5117587;28;20492;-73
2021/06/05 00:25:45;;;;;;;24.13;21.83;;;;;;;;;;5117857;28;20802;-72
2021/06/05 00:28:14;;;;;;;24.40;21.90;;;;;;;;;;5117462;28;20475;-72
2021/06/05 00:30:40;;;;;;;24.43;22.10;;;;;;;;;;5117458;28;20464;-72
2021/06/05 00:33:08;;;;;;;23.53;21.30;;;;;;;;;;5117701;28;20820;-72
2021/06/05 00:35:35;;;;;;;23.73;21.50;;;;;;;;;;5117766;28;21016;-72
2021/06/05 00:38:02;;;;;;;23.20;21.00;;;;;;;;;;5117658;28;20464;-72
2021/06/05 00:40:30;;;;;;;23.83;21.37;;;;;;;;;;5117587;28;20442;-72
2021/06/05 00:42:58;;;;;;;22.17;19.90;;;;;;;;;;5117528;28;20800;-72
2021/06/05 00:45:27;;;;;;;22.17;20.07;;;;;;;;;;5117479;28;20502;-73
2021/06/05 00:47:53;;;;;;;24.17;21.87;;;;;;;;;;5117754;28;20786;-72
2021/06/05 00:50:21;;;;;;;25.20;22.73;;;;;;;;;;5117371;28;20444;-72
2021/06/05 00:52:48;;;;;;;26.73;24.03;;;;;;;;;;5117839;28;20512;-72
2021/06/05 00:55:16;;;;;;;23.30;20.90;;;;;;;;;;5117003;28;20440;-72
2021/06/05 00:57:43;;;;;;;26.63;23.70;;;;;;;;;;5117234;28;20580;-72
2021/06/05 01:00:14;;;;;;;28.47;25.53;;;;;;;;;;5116863;28;20477;-71
2021/06/05 01:02:42;;;;;;;30.87;27.57;;;;;;;;;;5116830;28;20906;-71
2021/06/05 01:05:09;;;;;;;32.23;28.00;;;;;;;;;;5117458;28;20451;-71
2021/06/05 01:07:36;;;;;;;35.43;31.03;;;;;;;;;;5117008;28;20992;-72
2021/06/05 01:10:06;;;;;;;39.83;31.17;;;;;;;;;;5117336;28;20500;-72
2021/06/05 01:12:37;;;;;;;36.03;31.80;;;;;;;;;;5117398;28;20494;-72
2021/06/05 01:15:07;;;;;;;40.80;34.17;;;;;;;;;;5116986;28;20427;-72
2021/06/05 01:17:36;;;;;;;39.40;34.40;;;;;;;;;;5117038;28;20796;-71
2021/06/05 01:20:08;;;;;;;40.17;35.87;;;;;;;;;;5116816;28;20447;-71
2021/06/05 01:22:41;;;;;;;38.47;34.27;;;;;;;;;;5116535;28;20448;-71
2021/06/05 01:25:24;;;;;;;41.77;37.10;;;;;;;;;;5117406;28;20784;-71
2021/06/05 01:27:54;;;;;;;37.27;33.30;;;;;;;;;;5116433;28;20481;-70
2021/06/05 01:30:23;;;;;;;41.67;36.27;;;;;;;;;;5115667;28;20518;-70
2021/06/05 01:32:50;;;;;;;42.00;37.57;;;;;;;;;;5116195;28;20477;-70
2021/06/05 01:35:17;;;;;;;42.13;36.40;;;;;;;;;;5116665;28;20445;-70
2021/06/05 01:37:44;;;;;;;45.23;37.10;;;;;;;;;;5116245;28;20447;-71
2021/06/05 01:40:13;;;;;;;43.17;37.87;;;;;;;;;;5116560;28;20443;-71
2021/06/05 01:42:41;;;;;;;41.20;36.80;;;;;;;;;;5116398;28;20798;-72
2021/06/05 01:45:13;;;;;;;41.23;36.20;;;;;;;;;;5116653;28;20451;-71
2021/06/05 01:47:39;;;;;;;40.50;36.10;;;;;;;;;;5116334;28;20429;-71
2021/06/05 01:50:06;;;;;;;44.00;37.30;;;;;;;;;;5116226;28;20985;-71
2021/06/05 01:52:34;;;;;;;40.07;35.20;;;;;;;;;;5115809;28;20466;-71
2021/06/05 01:55:03;;;;;;;39.37;34.20;;;;;;;;;;5116164;28;20942;-71
2021/06/05 01:57:32;;;;;;;39.07;34.80;;;;;;;;;;5116287;28;20439;-70
2021/06/05 01:59:59;;;;;;;38.37;34.17;;;;;;;;;;5115709;28;20449;-70
2021/06/05 02:02:27;;;;;;;42.90;38.17;;;;;;;;;;5115985;28;20519;-70
2021/06/05 02:04:54;;;;;;;40.70;36.30;;;;;;;;;;5115603;28;20450;-71
2021/06/05 02:07:21;;;;;;;40.10;35.87;;;;;;;;;;5116476;28;20448;-72
2021/06/05 02:09:50;;;;;;;40.73;35.33;;;;;;;;;;5115535;28;20957;-71
2021/06/05 02:12:18;;;;;;;38.57;34.30;;;;;;;;;;5115689;28;20526;-71
2021/06/05 02:14:50;;;;;;;40.40;36.07;;;;;;;;;;5115386;28;20450;-70
2021/06/05 02:17:18;;;;;;;42.03;37.57;;;;;;;;;;5115426;28;20427;-71
2021/06/05 02:19:49;;;;;;;42.93;37.07;;;;;;;;;;5115302;28;20936;-71
2021/06/05 02:22:17;;;;;;;41.20;36.77;;;;;;;;;;5116237;28;20804;-71
2021/06/05 02:24:44;;;;;;;39.60;34.80;;;;;;;;;;5115542;28;20491;-71
2021/06/05 02:27:12;;;;;;;40.93;36.53;;;;;;;;;;5115416;28;20458;-71
2021/06/05 02:29:40;;;;;;;43.13;38.53;;;;;;;;;;5115420;28;20443;-72
2021/06/05 02:32:08;;;;;;;43.03;38.33;;;;;;;;;;5115416;28;20443;-72
2021/06/05 02:34:35;;;;;;;44.43;37.00;;;;;;;;;;5114947;28;20987;-72
2021/06/05 02:37:04;;;;;;;41.27;36.77;;;;;;;;;;5115113;28;21003;-72
2021/06/05 02:39:31;;;;;;;41.67;34.60;;;;;;;;;;5115201;28;20431;-71
2021/06/05 02:41:59;;;;;;;38.90;34.10;;;;;;;;;;5115040;28;20435;-71
2021/06/05 02:44:27;;;;;;;42.43;36.47;;;;;;;;;;5114792;28;20949;-71
2021/06/05 02:46:54;;;;;;;39.80;35.60;;;;;;;;;;5114778;28;20449;-72
2021/06/05 02:49:29;;;;;;;38.30;34.10;;;;;;;;;;5114887;28;20521;-71
2021/06/05 02:51:58;;;;;;;38.23;32.50;;;;;;;;;;5115913;28;20414;-71
2021/06/05 02:54:26;;;;;;;46.03;35.57;;;;;;;;;;5114548;28;20483;-71
2021/06/05 02:56:53;;;;;;;41.87;33.80;;;;;;;;;;5115048;28;20446;-71
2021/06/05 02:59:20;;;;;;;39.63;35.33;;;;;;;;;;5114563;28;20448;-71
2021/06/05 03:01:47;;;;;;;42.70;35.37;;;;;;;;;;5114550;28;20925;-71
2021/06/05 03:04:14;;;;;;;37.83;33.70;;;;;;;;;;5114817;28;20442;-71
2021/06/05 03:06:41;;;;;;;36.70;32.63;;;;;;;;;;5115208;28;20447;-70
2021/06/05 03:09:11;;;;;;;43.93;35.80;;;;;;;;;;5114695;28;20441;-70
2021/06/05 03:11:39;;;;;;;43.30;34.70;;;;;;;;;;5114940;28;20442;-71
2021/06/05 03:14:06;;;;;;;42.20;35.67;;;;;;;;;;5115038;28;20546;-71
2021/06/05 03:16:33;;;;;;;41.47;35.90;;;;;;;;;;5114280;28;20529;-70
2021/06/05 03:19:00;;;;;;;42.57;37.90;;;;;;;;;;5114210;28;20443;-70
2021/06/05 03:21:26;;;;;;;39.73;35.27;;;;;;;;;;5114931;28;20451;-72
2021/06/05 03:23:53;;;;;;;42.27;37.40;;;;;;;;;;5114482;28;20443;-71
2021/06/05 03:26:20;;;;;;;43.30;36.50;;;;;;;;;;5114228;28;20526;-70
2021/06/05 03:28:49;;;;;;;46.43;36.17;;;;;;;;;;5114447;28;20438;-71
2021/06/05 03:31:21;;;;;;;43.67;36.27;;;;;;;;;;5114328;28;20438;-70
2021/06/05 03:33:48;;;;;;;43.00;35.50;;;;;;;;;;5114955;28;20498;-71
2021/06/05 03:36:15;;;;;;;47.27;37.90;;;;;;;;;;5114169;28;20443;-71
2021/06/05 03:38:42;;;;;;;41.77;35.77;;;;;;;;;;5113948;28;20445;-70
2021/06/05 03:41:10;;;;;;;41.20;36.27;;;;;;;;;;5114237;28;20439;-71
2021/06/05 03:43:36;;;;;;;45.53;38.27;;;;;;;;;;5114233;28;20443;-71
2021/06/05 03:46:04;;;;;;;42.70;36.63;;;;;;;;;;5114128;28;20488;-71
2021/06/05 03:48:31;;;;;;;46.37;37.77;;;;;;;;;;5114160;28;20450;-70
2021/06/05 03:50:58;;;;;;;40.10;32.67;;;;;;;;;;5113752;28;20445;-71
2021/06/05 03:53:25;;;;;;;43.90;36.80;;;;;;;;;;5113130;28;20519;-70
2021/06/05 03:55:52;;;;;;;41.27;36.80;;;;;;;;;;5114081;28;20462;-71
2021/06/05 03:58:24;;;;;;;40.30;35.20;;;;;;;;;;5114017;28;20436;-71
2021/06/05 04:00:51;;;;;;;48.83;37.63;;;;;;;;;;5114375;28;20531;-70
2021/06/05 04:03:19;;;;;;;43.60;36.57;;;;;;;;;;5113979;28;20448;-72
2021/06/05 04:05:45;;;;;;;40.43;34.50;;;;;;;;;;5113927;28;20496;-70
2021/06/05 04:08:12;;;;;;;42.00;37.40;;;;;;;;;;5114238;28;20776;-71
2021/06/05 04:10:39;;;;;;;41.87;34.80;;;;;;;;;;5113898;28;20446;-71
2021/06/05 04:13:06;;;;;;;43.03;36.03;;;;;;;;;;5113814;28;20574;-72
2021/06/05 04:15:34;;;;;;;40.13;35.13;;;;;;;;;;5113528;28;20932;-71
2021/06/05 04:18:01;;;;;;;45.57;38.80;;;;;;;;;;5113516;28;20948;-71
2021/06/05 04:20:30;;;;;;;42.80;37.87;;;;;;;;;;5114205;28;20441;-71
2021/06/05 04:22:56;;;;;;;42.77;38.07;;;;;;;;;;5114201;28;20802;-71
2021/06/05 04:25:23;;;;;;;44.43;37.33;;;;;;;;;;5114076;28;20442;-71
2021/06/05 04:27:50;;;;;;;43.33;38.60;;;;;;;;;;5113663;28;20579;-72
2021/06/05 04:30:17;;;;;;;47.73;35.57;;;;;;;;;;5113959;28;20839;-71
2021/06/05 04:32:43;;;;;;;41.57;37.10;;;;;;;;;;5113304;28;20463;-72
2021/06/05 04:35:11;;;;;;;44.40;35.87;;;;;;;;;;5113798;28;20436;-73
2021/06/05 04:37:39;;;;;;;38.97;34.70;;;;;;;;;;5118519;28;20455;-72
2021/06/05 04:40:06;;;;;;;43.20;35.20;;;;;;;;;;5118828;28;20456;-72
2021/06/05 04:42:33;;;;;;;39.43;35.20;;;;;;;;;;5113016;28;20505;-71
2021/06/05 04:45:00;;;;;;;44.53;37.23;;;;;;;;;;5113367;28;20808;-71
2021/06/05 04:47:26;;;;;;;43.57;38.80;;;;;;;;;;5113526;28;20431;-71
2021/06/05 04:49:53;;;;;;;39.57;32.70;;;;;;;;;;5113250;28;20450;-71
2021/06/05 04:52:20;;;;;;;38.80;34.30;;;;;;;;;;5113274;28;20940;-72
2021/06/05 04:54:48;;;;;;;37.73;32.53;;;;;;;;;;5113443;28;20486;-72
2021/06/05 04:57:15;;;;;;;37.10;30.80;;;;;;;;;;5113603;28;20902;-72
2021/06/05 04:59:41;;;;;;;34.80;30.97;;;;;;;;;;5113478;28;20436;-72
2021/06/05 05:02:08;;;;;;;34.43;30.73;;;;;;;;;;5113124;28;20454;-72
2021/06/05 05:04:35;;;;;;;36.93;31.07;;;;;;;;;;5113884;28;20443;-72
2021/06/05 05:07:02;;;;;;;32.83;29.33;;;;;;;;;;5115565;27;20496;-72
2021/06/05 05:09:28;;;;;;;34.53;30.27;;;;;;;;;;5116434;28;20945;-72
2021/06/05 05:11:57;;;;;;;32.40;28.80;;;;;;;;;;5116939;28;20443;-71
2021/06/05 05:14:24;;;;;;;32.80;27.20;;;;;;;;;;5116859;28;20523;-72
2021/06/05 05:16:51;;;;;;;32.07;28.47;;;;;;;;;;5116824;28;20436;-72
2021/06/05 05:19:17;;;;;;;30.40;27.20;;;;;;;;;;5116403;28;20439;-72
2021/06/05 05:21:44;;;;;;;34.73;29.07;;;;;;;;;;5116780;28;20443;-72
2021/06/05 05:24:11;;;;;;;33.63;28.13;;;;;;;;;;5116361;28;20539;-72
2021/06/05 05:26:38;;;;;;;36.93;29.53;;;;;;;;;;5116330;28;20458;-71
2021/06/05 05:29:06;;;;;;;34.77;27.57;;;;;;;;;;5117136;28;20438;-72
2021/06/05 05:31:32;;;;;;;32.13;28.33;;;;;;;;;;5116874;27;20528;-71
2021/06/05 05:34:00;;;;;;;34.67;28.47;;;;;;;;;;5125576;27;20486;-72
2021/06/05 05:36:28;;;;;;;34.60;27.23;;;;;;;;;;5136484;27;20927;-72
2021/06/05 05:38:55;;;;;;;32.80;29.00;;;;;;;;;;5136970;27;20458;-71
2021/06/05 05:41:23;;;;;;;30.97;27.27;;;;;;;;;;5136881;27;20446;-72
2021/06/05 05:43:49;;;;;;;39.03;28.60;;;;;;;;;;5136556;27;20932;-71
2021/06/05 05:46:17;;;;;;;34.43;30.30;;;;;;;;;;5136471;27;20434;-72
2021/06/05 05:48:45;;;;;;;31.20;27.20;;;;;;;;;;5136839;27;20448;-72
2021/06/05 05:51:12;;;;;;;33.47;28.60;;;;;;;;;;5137278;27;20947;-72
2021/06/05 05:53:40;;;;;;;32.00;26.83;;;;;;;;;;5136684;27;20802;-72
2021/06/05 05:56:08;;;;;;;32.70;27.60;;;;;;;;;;5136646;27;20447;-71
2021/06/05 05:58:36;;;;;;;36.37;30.27;;;;;;;;;;5137101;27;20458;-72
2021/06/05 06:01:03;;;;;;;32.43;28.83;;;;;;;;;;5136562;27;20522;-71
2021/06/05 06:03:31;;;;;;;33.00;26.60;;;;;;;;;;5117683;27;20816;-71
2021/06/05 06:05:58;;;;;;;30.97;25.10;;;;;;;;;;5115614;28;20448;-71
2021/06/05 06:08:25;;;;;;;28.77;25.60;;;;;;;;;;5116088;28;20458;-72
2021/06/05 06:10:52;;;;;;;28.30;25.27;;;;;;;;;;5115893;28;20865;-72
2021/06/05 06:13:19;;;;;;;29.63;26.10;;;;;;;;;;5115959;28;20870;-72
2021/06/05 06:15:47;;;;;;;28.93;25.80;;;;;;;;;;5115366;28;20477;-71
2021/06/05 06:18:14;;;;;;;34.40;26.27;;;;;;;;;;5114827;28;20476;-70
2021/06/05 06:20:43;;;;;;;28.73;25.37;;;;;;;;;;5115621;28;20443;-71
2021/06/05 06:23:11;;;;;;;29.10;26.00;;;;;;;;;;5115307;28;20444;-72
2021/06/05 06:25:39;;;;;;;30.70;24.30;;;;;;;;;;5115432;28;20441;-72
2021/06/05 06:28:07;;;;;;;26.60;23.90;;;;;;;;;;5115680;28;20825;-72
2021/06/05 06:30:34;;;;;;;26.10;23.33;;;;;;;;;;5116114;28;20444;-71
2021/06/05 06:33:01;;;;;;;27.93;23.27;;;;;;;;;;5114782;28;20449;-72
2021/06/05 06:35:29;;;;;;;26.47;23.87;;;;;;;;;;5115366;28;20437;-71
2021/06/05 06:37:58;;;;;;;25.23;22.33;;;;;;;;;;5114820;28;20444;-72
2021/06/05 06:40:26;;;;;;;24.40;21.80;;;;;;;;;;5115443;28;20434;-72
2021/06/05 06:42:53;;;;;;;33.57;26.30;;;;;;;;;;5115114;28;20444;-73
2021/06/05 06:45:19;;;;;;;36.97;29.40;;;;;;;;;;5115372;28;20516;-72
2021/06/05 06:47:46;;;;;;;34.87;30.97;;;;;;;;;;5114546;28;20997;-72
2021/06/05 06:50:14;;;;;;;31.97;28.57;;;;;;;;;;5114970;28;20534;-71
2021/06/05 06:52:41;;;;;;;33.10;29.50;;;;;;;;;;5115040;28;20515;-71
2021/06/05 06:55:10;;;;;;;35.40;30.53;;;;;;;;;;5114908;28;20833;-73
2021/06/05 06:57:37;;;;;;;32.13;27.73;;;;;;;;;;5115125;28;20522;-72
2021/06/05 07:00:05;;;;;;;39.00;31.70;;;;;;;;;;5114514;28;20444;-71
2021/06/05 07:02:32;;;;;;;34.77;31.20;;;;;;;;;;5114474;28;20446;-71
2021/06/05 07:04:59;;;;;;;33.03;29.43;;;;;;;;;;5114706;28;20440;-72
2021/06/05 07:07:25;;;;;;;37.67;31.73;;;;;;;;;;5114373;28;20504;-72
2021/06/05 07:09:52;;;;;;;38.80;33.30;;;;;;;;;;5114192;28;20449;-72
2021/06/05 07:12:20;;;;;;;38.50;32.40;;;;;;;;;;5114527;28;20440;-72
2021/06/05 07:14:47;;;;;;;35.03;31.20;;;;;;;;;;5114052;28;20478;-72
2021/06/05 07:17:14;;;;;;;33.90;29.80;;;;;;;;;;5114485;28;20854;-72
2021/06/05 07:19:40;;;;;;;37.50;31.10;;;;;;;;;;5114054;28;20441;-72
2021/06/05 07:22:07;;;;;;;37.63;30.83;;;;;;;;;;5114467;28;20489;-71
2021/06/05 07:24:34;;;;;;;38.60;31.97;;;;;;;;;;5115519;27;20954;-71
2021/06/05 07:27:00;;;;;;;34.97;31.17;;;;;;;;;;5125469;27;20477;-72
2021/06/05 07:29:29;;;;;;;37.47;28.07;;;;;;;;;;5134254;27;20427;-72
2021/06/05 07:31:55;;;;;;;43.23;32.23;;;;;;;;;;5134654;27;20434;-72
2021/06/05 07:34:23;;;;;;;36.33;29.83;;;;;;;;;;5134815;27;20561;-72
2021/06/05 07:36:52;;;;;;;38.13;31.20;;;;;;;;;;5134703;27;20916;-72
2021/06/05 07:39:21;;;;;;;36.70;30.47;;;;;;;;;;5134706;27;20792;-72
2021/06/05 07:41:48;;;;;;;39.80;32.43;;;;;;;;;;5134336;27;20432;-72
2021/06/05 07:44:15;;;;;;;40.10;32.70;;;;;;;;;;5134304;27;20458;-72
2021/06/05 07:46:44;;;;;;;37.47;31.33;;;;;;;;;;5134916;27;20443;-71
2021/06/05 07:49:10;;;;;;;36.17;30.50;;;;;;;;;;5134695;27;20503;-72
2021/06/05 07:51:37;;;;;;;32.27;27.50;;;;;;;;;;5134614;27;20439;-73
2021/06/05 07:54:04;;;;;;;33.87;27.30;;;;;;;;;;5134262;28;20470;-71
2021/06/05 07:56:31;;;;;;;41.20;29.97;;;;;;;;;;5114062;28;20439;-72
2021/06/05 07:58:58;;;;;;;32.40;27.10;;;;;;;;;;5114036;28;20446;-72
2021/06/05 08:01:25;;;;;;;35.23;26.07;;;;;;;;;;5114392;28;20927;-72
2021/06/05 08:03:53;;;;;;;33.60;26.73;;;;;;;;;;5113948;28;20529;-72
2021/06/05 08:06:21;;;;;;;31.77;26.00;;;;;;;;;;5113879;28;20523;-71
2021/06/05 08:08:47;;;;;;;35.17;28.83;;;;;;;;;;5113838;28;20440;-72
2021/06/05 08:11:14;;;;;;;33.20;27.90;;;;;;;;;;5114387;28;20930;-72
2021/06/05 08:13:41;;;;;;;34.90;26.43;;;;;;;;;;5113704;28;20467;-71
2021/06/05 08:16:08;;;;;;;34.47;29.40;;;;;;;;;;5113797;28;20831;-72
2021/06/05 08:18:35;;;;;;;37.40;31.07;;;;;;;;;;5113782;28;20543;-72
2021/06/05 08:21:07;;;;;;;34.50;28.50;;;;;;;;;;5113846;28;20449;-72
2021/06/05 08:23:34;;;;;;;36.53;29.97;;;;;;;;;;5113779;28;20463;-72
2021/06/05 08:26:01;;;;;;;33.20;29.03;;;;;;;;;;5112767;28;20497;-71
2021/06/05 08:28:29;;;;;;;36.77;27.90;;;;;;;;;;5112874;28;20464;-71
2021/06/05 08:30:58;;;;;;;32.00;27.67;;;;;;;;;;5113635;28;20445;-72
2021/06/05 08:33:25;;;;;;;36.00;28.60;;;;;;;;;;5113621;28;20511;-72
2021/06/05 08:35:52;;;;;;;32.97;26.87;;;;;;;;;;5113208;28;20537;-72
2021/06/05 08:38:22;;;;;;;33.77;28.63;;;;;;;;;;5113283;28;20479;-72
2021/06/05 08:40:58;;;;;;;33.40;28.33;;;;;;;;;;5116218;28;20534;-72
2021/06/05 08:43:28;;;;;;;31.57;28.10;;;;;;;;;;5118211;28;20497;-71
2021/06/05 08:45:55;;;;;;;38.23;32.23;;;;;;;;;;5117823;28;20519;-72
2021/06/05 08:48:23;;;;;;;37.80;32.33;;;;;;;;;;5117773;28;20441;-71
2021/06/05 08:50:49;;;;;;;35.87;32.00;;;;;;;;;;5117020;28;20435;-71
2021/06/05 08:53:18;;;;;;;38.47;32.60;;;;;;;;;;5117031;28;20973;-72
2021/06/05 08:55:48;;;;;;;37.73;30.93;;;;;;;;;;5116978;28;20487;-71
2021/06/05 08:58:29;;;;;;;43.00;34.30;;;;;;;;;;5117439;28;20513;-71
2021/06/05 09:00:57;;;;;;;41.67;34.80;;;;;;;;;;5116951;28;20425;-72
2021/06/05 09:03:25;;;;;;;43.53;36.37;;;;;;;;;;5116824;28;21005;-72
2021/06/05 09:05:53;;;;;;;48.43;40.00;;;;;;;;;;5116797;28;20436;-72
2021/06/05 09:08:20;;;;;;;45.00;36.80;;;;;;;;;;5117346;28;20444;-73
2021/06/05 09:10:48;;;;;;;42.30;34.20;;;;;;;;;;5116905;28;20435;-71
2021/06/05 09:13:15;;;;;;;49.17;37.90;;;;;;;;;;5116465;28;20443;-72
2021/06/05 09:15:42;;;;;;;45.77;36.87;;;;;;;;;;5116810;28;20489;-73
2021/06/05 09:18:10;;;;;;;45.63;35.60;;;;;;;;;;5116336;28;20991;-72
2021/06/05 09:20:38;;;;;;;43.50;35.40;;;;;;;;;;5116423;28;20451;-72
2021/06/05 09:23:20;;;;;;;43.57;38.70;;;;;;;;;;5116754;28;20969;-72
2021/06/05 09:25:48;;;;;;;42.47;36.47;;;;;;;;;;5116429;28;20452;-73
2021/06/05 09:28:16;;;;;;;42.20;35.63;;;;;;;;;;5115978;28;20917;-73
2021/06/05 09:30:43;;;;;;;41.50;35.77;;;;;;;;;;5116192;28;20442;-72
2021/06/05 09:33:11;;;;;;;43.60;36.10;;;;;;;;;;5116146;28;20441;-73
2021/06/05 09:35:40;;;;;;;38.67;34.47;;;;;;;;;;5116640;28;20438;-73
2021/06/05 09:38:28;;;;;;;41.27;36.50;;;;;;;;;;5116557;28;20451;-72
2021/06/05 09:40:59;;;;;;;41.63;35.27;;;;;;;;;;5111898;28;20465;-72
2021/06/05 09:43:27;;;;;;;41.80;37.33;;;;;;;;;;5116008;28;20922;-73
2021/06/05 09:46:12;;;;;;;38.80;34.03;;;;;;;;;;5116412;28;20439;-73
2021/06/05 09:48:39;;;;;;;38.60;33.83;;;;;;;;;;5115986;28;20533;-72
2021/06/05 09:51:23;;;;;;;39.93;33.67;;;;;;;;;;5116034;28;20443;-72
2021/06/05 09:53:57;;;;;;;42.17;33.33;;;;;;;;;;5115754;28;20465;-69
2021/06/05 09:56:26;;;;;;;37.00;32.73;;;;;;;;;;5116816;28;20914;-72
2021/06/05 09:59:00;;;;;;;31.00;27.40;;;;;;;;;;5115607;28;20450;-73
2021/06/05 10:01:28;;;;;;;32.63;29.20;;;;;;;;;;5116426;28;20423;-72
2021/06/05 10:03:56;;;;;;;31.87;28.27;;;;;;;;;;5115247;28;20455;-74
2021/06/05 10:06:33;;;;;;;35.07;31.20;;;;;;;;;;5121031;27;20443;-75
2021/06/05 10:09:02;;;;;;;36.57;31.70;;;;;;;;;;5132879;27;20474;-75
2021/06/05 10:11:32;;;;;;;35.27;29.80;;;;;;;;;;5136059;27;20809;-75
2021/06/05 10:14:02;;;;;;;37.00;33.00;;;;;;;;;;5136993;27;20536;-74
2021/06/05 10:16:28;;;;;;;36.80;32.80;;;;;;;;;;5136111;27;20446;-76
2021/06/05 10:18:57;;;;;;;36.80;32.60;;;;;;;;;;5135759;27;20990;-75
2021/06/05 10:21:27;;;;;;;36.50;32.70;;;;;;;;;;5136107;27;20447;-75
2021/06/05 10:23:55;;;;;;;35.43;31.10;;;;;;;;;;5135749;27;20958;-76
2021/06/05 10:26:25;;;;;;;33.07;29.63;;;;;;;;;;5135978;27;20490;-74
2021/06/05 10:28:55;;;;;;;33.03;28.57;;;;;;;;;;5135699;27;20956;-74
2021/06/05 10:31:23;;;;;;;35.57;28.50;;;;;;;;;;5135622;27;20446;-74
2021/06/05 10:33:52;;;;;;;37.20;31.63;;;;;;;;;;5135820;27;20473;-76
2021/06/05 10:36:21;;;;;;;36.70;30.60;;;;;;;;;;5109561;27;20439;-76
2021/06/05 10:38:48;;;;;;;32.50;29.10;;;;;;;;;;5094849;28;20548;-75
2021/06/05 10:41:17;;;;;;;34.60;30.83;;;;;;;;;;5094748;28;20522;-75
2021/06/05 10:43:44;;;;;;;33.67;29.13;;;;;;;;;;5094441;28;20955;-75
2021/06/05 10:46:18;;;;;;;32.03;27.23;;;;;;;;;;5094612;28;20431;-74
2021/06/05 10:48:46;;;;;;;29.43;26.33;;;;;;;;;;5095385;28;20456;-75
2021/06/05 10:51:15;;;;;;;34.67;30.80;;;;;;;;;;5094818;28;20495;-75
2021/06/05 10:53:47;;;;;;;34.77;29.13;;;;;;;;;;5094755;28;20617;-75
2021/06/05 10:56:15;;;;;;;38.37;34.30;;;;;;;;;;5094665;28;20943;-76
2021/06/05 10:58:44;;;;;;;37.07;33.07;;;;;;;;;;5094185;28;20444;-74
2021/06/05 11:01:13;;;;;;;37.83;33.30;;;;;;;;;;5094467;28;20449;-75
2021/06/05 11:03:57;;;;;;;39.70;34.60;;;;;;;;;;5094387;28;20538;-75
2021/06/05 11:06:28;;;;;;;39.80;35.77;;;;;;;;;;5094437;28;20533;-73
2021/06/05 11:08:57;;;;;;;41.10;36.60;;;;;;;;;;5094951;28;20526;-73
2021/06/05 11:11:38;;;;;;;38.60;33.60;;;;;;;;;;5093940;28;20480;-75
2021/06/05 11:14:08;;;;;;;39.77;35.63;;;;;;;;;;5094435;28;20463;-74
2021/06/05 11:16:53;;;;;;;43.80;35.53;;;;;;;;;;5094189;28;20562;-75
2021/06/05 11:19:33;;;;;;;37.83;33.13;;;;;;;;;;5094484;28;20446;-75
2021/06/05 11:22:02;;;;;;;39.07;34.87;;;;;;;;;;5094225;28;20445;-75
2021/06/05 11:24:29;;;;;;;36.03;31.93;;;;;;;;;;5093773;28;20462;-74
2021/06/05 11:26:57;;;;;;;35.90;32.10;;;;;;;;;;5098336;28;20863;-74
2021/06/05 11:29:48;;;;;;;36.83;32.97;;;;;;;;;;5114044;28;20442;-75
2021/06/05 11:32:33;;;;;;;38.37;34.23;;;;;;;;;;5099085;28;20946;-75
2021/06/05 11:35:01;;;;;;;38.63;33.50;;;;;;;;;;5114064;28;20478;-75
2021/06/05 11:37:52;;;;;;;35.90;31.67;;;;;;;;;;5114444;28;20883;-76
2021/06/05 11:40:37;;;;;;;33.90;30.40;;;;;;;;;;5099013;28;20446;-75
2021/06/05 11:43:06;;;;;;;35.40;31.53;;;;;;;;;;5114174;28;20448;-74
2021/06/05 11:45:53;;;;;;;35.33;31.57;;;;;;;;;;5113789;28;20531;-75
2021/06/05 11:48:38;;;;;;;35.53;31.67;;;;;;;;;;5114859;28;20420;-75
2021/06/05 11:51:16;;;;;;;33.00;29.40;;;;;;;;;;5114394;28;20446;-75
2021/06/05 11:53:43;;;;;;;34.00;29.43;;;;;;;;;;5113874;28;20924;-77
2021/06/05 11:56:10;;;;;;;34.63;30.90;;;;;;;;;;5114268;28;20534;-74
2021/06/05 11:58:39;;;;;;;30.40;27.37;;;;;;;;;;5113616;28;20523;-74
2021/06/05 12:01:13;;;;;;;33.40;29.83;;;;;;;;;;5113576;28;20830;-74
2021/06/05 12:03:44;;;;;;;32.03;28.60;;;;;;;;;;5113915;28;20525;-74
2021/06/05 12:06:12;;;;;;;29.60;25.83;;;;;;;;;;5113571;28;20435;-74
2021/06/05 12:08:39;;;;;;;31.17;27.57;;;;;;;;;;5114078;28;20806;-75
2021/06/05 12:11:17;;;;;;;28.80;25.90;;;;;;;;;;5114011;28;20832;-75
2021/06/05 12:13:45;;;;;;;26.47;23.77;;;;;;;;;;5113899;28;20424;-75
2021/06/05 12:16:15;;;;;;;29.43;26.13;;;;;;;;;;5117291;28;20486;-76
2021/06/05 12:18:44;;;;;;;31.20;27.73;;;;;;;;;;5118429;28;21030;-75
2021/06/05 12:21:23;;;;;;;33.43;29.43;;;;;;;;;;5118022;28;20446;-77
2021/06/05 12:23:51;;;;;;;35.93;31.10;;;;;;;;;;5118307;28;20556;-74
2021/06/05 12:26:19;;;;;;;39.87;32.47;;;;;;;;;;5117797;28;20441;-76
2021/06/05 12:28:49;;;;;;;34.83;31.13;;;;;;;;;;5118413;28;20550;-74
2021/06/05 12:31:19;;;;;;;33.90;30.40;;;;;;;;;;5117840;28;20445;-77
2021/06/05 12:33:54;;;;;;;29.53;26.43;;;;;;;;;;5118347;28;20454;-77
2021/06/05 12:36:23;;;;;;;33.80;30.20;;;;;;;;;;5117453;28;20466;-74
2021/06/05 12:38:51;;;;;;;34.77;30.27;;;;;;;;;;5117366;28;20485;-74
2021/06/05 12:41:21;;;;;;;36.10;32.20;;;;;;;;;;5117305;28;20446;-74
2021/06/05 12:43:50;;;;;;;33.57;29.97;;;;;;;;;;5116826;28;21031;-74
2021/06/05 12:46:20;;;;;;;36.93;31.70;;;;;;;;;;5117445;28;20455;-74
2021/06/05 12:48:47;;;;;;;36.20;30.93;;;;;;;;;;5117546;28;20461;-74
2021/06/05 12:51:18;;;;;;;36.50;31.23;;;;;;;;;;5117265;28;20476;-73
2021/06/05 12:53:44;;;;;;;38.27;32.37;;;;;;;;;;5117002;28;20436;-73
2021/06/05 12:56:26;;;;;;;35.93;32.03;;;;;;;;;;5117232;28;20446;-74
2021/06/05 12:58:56;;;;;;;40.37;31.10;;;;;;;;;;5116899;28;20419;-74
2021/06/05 13:01:28;;;;;;;38.30;34.20;;;;;;;;;;5117770;28;20431;-74
2021/06/05 13:03:55;;;;;;;37.53;33.37;;;;;;;;;;5117046;28;20432;-73
2021/06/05 13:06:26;;;;;;;43.03;37.57;;;;;;;;;;5116702;28;20476;-75
2021/06/05 13:08:54;;;;;;;43.60;35.03;;;;;;;;;;5117037;28;20428;-74
2021/06/05 13:11:37;;;;;;;44.27;36.60;;;;;;;;;;5117023;28;20471;-74
2021/06/05 13:14:07;;;;;;;44.90;37.43;;;;;;;;;;5116439;28;21022;-77
2021/06/05 13:16:34;;;;;;;49.13;38.97;;;;;;;;;;5116462;28;20482;-73
2021/06/05 13:19:10;;;;;;;47.33;38.20;;;;;;;;;;5116509;28;20438;-76
2021/06/05 13:21:37;;;;;;;40.23;35.27;;;;;;;;;;5116664;28;20507;-75
2021/06/05 13:24:14;;;;;;;44.47;36.17;;;;;;;;;;5116470;28;20456;-74
2021/06/05 13:26:42;;;;;;;51.90;39.67;;;;;;;;;;5115407;28;20435;-74
2021/06/05 13:29:29;;;;;;;44.57;35.70;;;;;;;;;;5117538;28;20820;-73
2021/06/05 13:32:01;;;;;;;42.30;35.00;;;;;;;;;;5111716;28;20540;-74
2021/06/05 13:34:29;;;;;;;46.20;35.03;;;;;;;;;;5116392;28;20501;-74
2021/06/05 13:37:23;;;;;;;41.63;37.00;;;;;;;;;;5116578;28;20531;-74
2021/06/05 13:39:51;;;;;;;46.90;37.67;;;;;;;;;;5080535;28;20548;-75
2021/06/05 13:42:18;;;;;;;47.60;37.40;;;;;;;;;;5116500;28;20444;-71
2021/06/05 13:44:45;;;;;;;37.27;31.00;;;;;;;;;;5116873;28;20522;-70
2021/06/05 13:47:14;;;;;;;54.60;40.97;;;;;;;;;;5116447;28;20441;-70
2021/06/05 13:49:41;;;;;;;45.10;38.60;;;;;;;;;;5115869;28;20469;-70
2021/06/05 13:52:11;;;;;;;52.87;42.00;;;;;;;;;;5115950;28;20447;-70
2021/06/05 13:54:38;;;;;;;51.37;42.40;;;;;;;;;;5115697;28;20524;-70
2021/06/05 13:57:06;;;;;;;49.93;42.97;;;;;;;;;;5116011;28;20436;-70
2021/06/05 13:59:32;;;;;;;39.77;35.57;;;;;;;;;;5116021;28;20466;-71
2021/06/05 14:01:59;;;;;;;39.80;35.50;;;;;;;;;;5115549;28;20456;-72
2021/06/05 14:04:27;;;;;;;36.60;31.60;;;;;;;;;;5115795;28;20531;-72
2021/06/05 14:06:54;;;;;;;32.37;28.27;;;;;;;;;;5116129;28;20539;-73
2021/06/05 14:09:21;;;;;;;37.70;33.90;;;;;;;;;;5116153;28;20446;-72
2021/06/05 14:11:47;;;;;;;32.07;28.77;;;;;;;;;;5115381;28;20446;-73
2021/06/05 14:14:15;;;;;;;35.97;32.47;;;;;;;;;;5115646;28;20566;-73
2021/06/05 14:16:42;;;;;;;31.43;28.33;;;;;;;;;;5115727;28;20497;-73
2021/06/05 14:19:09;;;;;;;27.70;24.00;;;;;;;;;;5115273;28;20450;-73
2021/06/05 14:21:37;;;;;;;28.10;25.30;;;;;;;;;;5115611;28;20438;-72
2021/06/05 14:24:05;;;;;;;28.70;25.90;;;;;;;;;;5115232;28;20442;-72
2021/06/05 14:26:31;;;;;;;25.93;23.23;;;;;;;;;;5114936;28;20431;-72